createdAt,value
2019-02-10T00:00:10.817Z,1003.49
2019-02-10T00:01:10.714Z,1003.43
2019-02-10T00:02:10.665Z,1003.41
2019-02-10T00:03:10.615Z,1003.34
2019-02-10T00:04:10.564Z,1003.31
2019-02-10T00:05:10.516Z,1003.26
2019-02-10T00:06:10.469Z,1003.28
2019-02-10T00:07:10.418Z,1003.38
2019-02-10T00:08:10.371Z,1003.41
2019-02-10T00:09:10.317Z,1003.44
2019-02-10T00:10:10.267Z,1003.37
2019-02-10T00:11:10.218Z,1003.32
2019-02-10T00:12:10.169Z,1003.35
2019-02-10T00:13:10.119Z,1003.33
2019-02-10T00:14:10.069Z,1003.34
2019-02-10T00:15:10.024Z,1003.39
2019-02-10T00:16:09.970Z,1003.37
2019-02-10T00:17:09.920Z,1003.37
2019-02-10T00:18:09.871Z,1003.39
2019-02-10T00:19:09.821Z,1003.44
2019-02-10T00:20:09.771Z,1003.39
2019-02-10T00:21:09.721Z,1003.39
2019-02-10T00:22:09.673Z,1003.40
2019-02-10T00:23:09.622Z,1003.39
2019-02-10T00:24:09.572Z,1003.34
2019-02-10T00:25:09.525Z,1003.42
2019-02-10T00:26:09.474Z,1003.46
2019-02-10T00:27:09.424Z,1003.38
2019-02-10T00:28:09.374Z,1003.41
2019-02-10T00:29:09.324Z,1003.43
2019-02-10T00:30:09.275Z,1003.39
2019-02-10T00:31:09.226Z,1003.46
2019-02-10T00:32:09.175Z,1003.48
2019-02-10T00:33:09.127Z,1003.43
2019-02-10T00:34:09.076Z,1003.45
2019-02-10T00:35:09.028Z,1003.50
2019-02-10T00:36:08.975Z,1003.49
2019-02-10T00:37:08.977Z,1003.45
2019-02-10T00:38:08.878Z,1003.47
2019-02-10T00:39:08.827Z,1003.44
2019-02-10T00:40:08.778Z,1003.40
2019-02-10T00:41:08.732Z,1003.41
2019-02-10T00:42:08.679Z,1003.41
2019-02-10T00:43:08.628Z,1003.40
2019-02-10T00:44:08.582Z,1003.44
2019-02-10T00:45:08.529Z,1003.41
2019-02-10T00:46:08.480Z,1003.42
2019-02-10T00:47:08.431Z,1003.44
2019-02-10T00:48:08.381Z,1003.43
2019-02-10T00:49:08.331Z,1003.45
2019-02-10T00:50:08.281Z,1003.45
2019-02-10T00:51:08.232Z,1003.44
2019-02-10T00:52:08.181Z,1003.46
2019-02-10T00:53:08.133Z,1003.45
2019-02-10T00:54:08.082Z,1003.43
2019-02-10T00:55:08.036Z,1003.41
2019-02-10T00:56:07.985Z,1003.39
2019-02-10T00:57:07.983Z,1003.41
2019-02-10T00:58:07.894Z,1003.38
2019-02-10T00:59:07.834Z,1003.34
2019-02-10T01:00:07.784Z,1003.36
2019-02-10T01:01:07.734Z,1003.36
2019-02-10T01:02:07.685Z,1003.37
2019-02-10T01:03:07.636Z,1003.37
2019-02-10T01:04:07.585Z,1003.39
2019-02-10T01:05:07.536Z,1003.38
2019-02-10T01:06:07.485Z,1003.31
2019-02-10T01:07:07.437Z,1003.31
2019-02-10T01:08:07.386Z,1003.35
2019-02-10T01:09:07.337Z,1003.30
2019-02-10T01:10:07.287Z,1003.31
2019-02-10T01:11:07.238Z,1003.30
2019-02-10T01:12:07.188Z,1003.28
2019-02-10T01:13:07.138Z,1003.32
2019-02-10T01:14:07.089Z,1003.24
2019-02-10T01:15:07.039Z,1003.24
2019-02-10T01:16:07.089Z,1003.26
2019-02-10T01:17:07.089Z,1003.27
2019-02-10T01:18:06.896Z,1003.20
2019-02-10T01:19:06.842Z,1003.22
2019-02-10T01:20:06.792Z,1003.26
2019-02-10T01:21:06.743Z,1003.19
2019-02-10T01:22:06.690Z,1003.22
2019-02-10T01:23:06.642Z,1003.20
2019-02-10T01:24:06.591Z,1003.21
2019-02-10T01:25:06.542Z,1003.18
2019-02-10T01:26:06.498Z,1003.16
2019-02-10T01:27:06.443Z,1003.18
2019-02-10T01:28:06.392Z,1003.17
2019-02-10T01:29:06.343Z,1003.18
2019-02-10T01:30:06.293Z,1003.18
2019-02-10T01:31:06.244Z,1003.08
2019-02-10T01:32:06.193Z,1003.14
2019-02-10T01:33:06.143Z,1003.12
2019-02-10T01:34:06.100Z,1003.15
2019-02-10T01:35:06.045Z,1003.13
2019-02-10T01:36:05.995Z,1003.18
2019-02-10T01:37:05.995Z,1003.14
2019-02-10T01:38:05.896Z,1003.13
2019-02-10T01:39:05.848Z,1003.12
2019-02-10T01:40:06.113Z,1003.07
2019-02-10T01:41:05.746Z,1003.09
2019-02-10T01:42:05.697Z,1003.11
2019-02-10T01:43:05.646Z,1003.14
2019-02-10T01:44:05.604Z,1003.11
2019-02-10T01:45:05.548Z,1003.06
2019-02-10T01:46:05.498Z,1003.09
2019-02-10T01:47:05.448Z,1003.07
2019-02-10T01:48:05.398Z,1003.11
2019-02-10T01:49:05.350Z,1003.11
2019-02-10T01:50:05.299Z,1003.05
2019-02-10T01:51:05.250Z,1003.06
2019-02-10T01:52:05.199Z,1002.97
2019-02-10T01:53:05.149Z,1003.00
2019-02-10T01:54:05.107Z,1003.01
2019-02-10T01:55:05.050Z,1002.98
2019-02-10T01:56:05.004Z,1002.98
2019-02-10T01:57:04.958Z,1002.94
2019-02-10T01:58:04.969Z,1002.97
2019-02-10T01:59:04.852Z,1003.02
2019-02-10T02:00:04.802Z,1002.95
2019-02-10T02:01:04.751Z,1002.97
2019-02-10T02:02:04.701Z,1002.95
2019-02-10T02:03:04.653Z,1002.96
2019-02-10T02:04:04.602Z,1002.95
2019-02-10T02:05:04.552Z,1002.89
2019-02-10T02:06:04.503Z,1002.87
2019-02-10T02:07:04.453Z,1002.92
2019-02-10T02:08:04.445Z,1002.88
2019-02-10T02:09:04.355Z,1002.89
2019-02-10T02:10:04.304Z,1002.92
2019-02-10T02:11:04.255Z,1002.92
2019-02-10T02:12:04.205Z,1002.91
2019-02-10T02:13:04.158Z,1002.87
2019-02-10T02:14:04.107Z,1002.87
2019-02-10T02:15:04.061Z,1002.86
2019-02-10T02:16:04.006Z,1002.86
2019-02-10T02:17:03.956Z,1002.82
2019-02-10T02:18:03.907Z,1002.84
2019-02-10T02:19:03.860Z,1002.79
2019-02-10T02:20:03.807Z,1002.84
2019-02-10T02:21:03.763Z,1002.81
2019-02-10T02:22:03.708Z,1002.85
2019-02-10T02:23:03.658Z,1002.84
2019-02-10T02:24:03.608Z,1002.80
2019-02-10T02:25:03.558Z,1002.84
2019-02-10T02:26:03.508Z,1002.82
2019-02-10T02:27:03.458Z,1002.85
2019-02-10T02:28:03.408Z,1002.85
2019-02-10T02:29:03.359Z,1002.77
2019-02-10T02:30:03.311Z,1002.80
2019-02-10T02:31:03.260Z,1002.78
2019-02-10T02:32:03.210Z,1002.73
2019-02-10T02:33:03.160Z,1002.75
2019-02-10T02:34:03.111Z,1002.79
2019-02-10T02:35:03.061Z,1002.76
2019-02-10T02:36:03.010Z,1002.73
2019-02-10T02:37:07.912Z,1002.75
2019-02-10T02:38:03.011Z,1002.74
2019-02-10T02:39:02.864Z,1002.73
2019-02-10T02:40:02.822Z,1002.71
2019-02-10T02:41:02.762Z,1002.69
2019-02-10T02:42:02.714Z,1002.67
2019-02-10T02:43:02.669Z,1002.61
2019-02-10T02:44:02.611Z,1002.65
2019-02-10T02:45:02.563Z,1002.63
2019-02-10T02:46:02.512Z,1002.62
2019-02-10T02:47:02.464Z,1002.57
2019-02-10T02:48:02.420Z,1002.52
2019-02-10T02:49:02.365Z,1002.57
2019-02-10T02:50:02.314Z,1002.58
2019-02-10T02:51:02.270Z,1002.52
2019-02-10T02:52:02.215Z,1002.52
2019-02-10T02:53:02.167Z,1002.47
2019-02-10T02:54:02.127Z,1002.48
2019-02-10T02:55:02.095Z,1002.46
2019-02-10T02:56:02.020Z,1002.42
2019-02-10T02:57:02.016Z,1002.47
2019-02-10T02:58:01.965Z,1002.46
2019-02-10T02:59:01.866Z,1002.48
2019-02-10T03:00:01.823Z,1002.43
2019-02-10T03:01:01.766Z,1002.44
2019-02-10T03:02:01.717Z,1002.37
2019-02-10T03:03:01.669Z,1002.39
2019-02-10T03:04:01.619Z,1002.35
2019-02-10T03:05:01.571Z,1002.35
2019-02-10T03:06:01.520Z,1002.35
2019-02-10T03:07:01.471Z,1002.32
2019-02-10T03:08:01.417Z,1002.28
2019-02-10T03:09:01.368Z,1002.26
2019-02-10T03:10:01.320Z,1002.22
2019-02-10T03:11:01.270Z,1002.23
2019-02-10T03:12:01.233Z,1002.23
2019-02-10T03:13:01.169Z,1002.24
2019-02-10T03:14:01.120Z,1002.24
2019-02-10T03:15:01.071Z,1002.23
2019-02-10T03:16:01.019Z,1002.25
2019-02-10T03:17:00.970Z,1002.20
2019-02-10T03:18:00.922Z,1002.23
2019-02-10T03:19:00.871Z,1002.22
2019-02-10T03:20:00.826Z,1002.22
2019-02-10T03:21:00.771Z,1002.17
2019-02-10T03:22:00.727Z,1002.21
2019-02-10T03:23:00.674Z,1002.22
2019-02-10T03:24:00.634Z,1002.14
2019-02-10T03:25:00.599Z,1002.13
2019-02-10T03:26:00.522Z,1002.18
2019-02-10T03:27:00.474Z,1002.11
2019-02-10T03:28:00.422Z,1002.12
2019-02-10T03:29:00.373Z,1002.14
2019-02-10T03:30:00.368Z,1002.12
2019-02-10T03:31:00.275Z,1002.12
2019-02-10T03:32:00.229Z,1002.11
2019-02-10T03:33:00.176Z,1002.06
2019-02-10T03:34:00.127Z,1002.08
2019-02-10T03:35:00.152Z,1002.06
2019-02-10T03:36:00.023Z,1002.08
2019-02-10T03:36:59.974Z,1002.01
2019-02-10T03:37:59.928Z,1002.00
2019-02-10T03:38:59.876Z,1002.04
2019-02-10T03:39:59.825Z,1001.98
2019-02-10T03:40:59.775Z,1001.97
2019-02-10T03:41:59.737Z,1001.95
2019-02-10T03:42:59.677Z,1001.95
2019-02-10T03:43:59.633Z,1001.91
2019-02-10T03:44:59.611Z,1001.95
2019-02-10T03:45:59.531Z,1001.91
2019-02-10T03:46:59.475Z,1001.89
2019-02-10T03:47:59.426Z,1001.85
2019-02-10T03:48:59.376Z,1001.84
2019-02-10T03:49:59.329Z,1001.83
2019-02-10T03:50:59.277Z,1001.84
2019-02-10T03:51:59.229Z,1001.84
2019-02-10T03:52:59.223Z,1001.86
2019-02-10T03:53:59.129Z,1001.91
2019-02-10T03:54:59.079Z,1001.84
2019-02-10T03:55:59.028Z,1001.81
2019-02-10T03:56:58.979Z,1001.81
2019-02-10T03:57:58.929Z,1001.78
2019-02-10T03:58:58.880Z,1001.81
2019-02-10T03:59:58.829Z,1001.80
2019-02-10T04:00:58.779Z,1001.79
2019-02-10T04:01:58.729Z,1001.73
2019-02-10T04:02:58.681Z,1001.74
2019-02-10T04:03:58.628Z,1001.77
2019-02-10T04:04:58.584Z,1001.70
2019-02-10T04:05:58.529Z,1001.72
2019-02-10T04:06:58.480Z,1001.71
2019-02-10T04:07:58.429Z,1001.74
2019-02-10T04:08:58.380Z,1001.68
2019-02-10T04:09:58.330Z,1001.66
2019-02-10T04:10:58.286Z,1001.68
2019-02-10T04:11:58.234Z,1001.63
2019-02-10T04:12:58.181Z,1001.61
2019-02-10T04:13:58.131Z,1001.63
2019-02-10T04:14:58.087Z,1001.58
2019-02-10T04:15:58.030Z,1001.59
2019-02-10T04:16:57.982Z,1001.56
2019-02-10T04:17:57.981Z,1001.61
2019-02-10T04:18:57.882Z,1001.56
2019-02-10T04:19:57.831Z,1001.58
2019-02-10T04:20:57.788Z,1001.55
2019-02-10T04:21:57.734Z,1001.50
2019-02-10T04:22:57.683Z,1001.48
2019-02-10T04:23:57.632Z,1001.50
2019-02-10T04:24:57.584Z,1001.50
2019-02-10T04:25:57.534Z,1001.50
2019-02-10T04:26:57.484Z,1001.43
2019-02-10T04:27:57.433Z,1001.41
2019-02-10T04:28:57.391Z,1001.42
2019-02-10T04:29:57.334Z,1001.43
2019-02-10T04:30:57.285Z,1001.46
2019-02-10T04:31:57.238Z,1001.44
2019-02-10T04:32:57.187Z,1001.45
2019-02-10T04:33:57.134Z,1001.44
2019-02-10T04:34:57.088Z,1001.47
2019-02-10T04:35:57.035Z,1001.47
2019-02-10T04:36:56.986Z,1001.46
2019-02-10T04:37:56.935Z,1001.41
2019-02-10T04:38:56.885Z,1001.41
2019-02-10T04:39:56.834Z,1001.37
2019-02-10T04:40:56.785Z,1001.40
2019-02-10T04:41:56.735Z,1001.38
2019-02-10T04:42:56.687Z,1001.40
2019-02-10T04:43:56.637Z,1001.37
2019-02-10T04:44:56.586Z,1001.35
2019-02-10T04:45:56.537Z,1001.32
2019-02-10T04:46:56.486Z,1001.32
2019-02-10T04:47:56.438Z,1001.33
2019-02-10T04:48:56.387Z,1001.26
2019-02-10T04:49:56.337Z,1001.26
2019-02-10T04:50:56.287Z,1001.20
2019-02-10T04:51:56.237Z,1001.26
2019-02-10T04:52:56.187Z,1001.22
2019-02-10T04:53:56.137Z,1001.24
2019-02-10T04:54:56.092Z,1001.19
2019-02-10T04:55:56.038Z,1001.17
2019-02-10T04:56:55.989Z,1001.16
2019-02-10T04:57:55.988Z,1001.20
2019-02-10T04:58:55.887Z,1001.12
2019-02-10T04:59:55.838Z,1001.12
2019-02-10T05:00:55.788Z,1001.16
2019-02-10T05:01:55.738Z,1001.19
2019-02-10T05:02:55.689Z,1001.12
2019-02-10T05:03:55.638Z,1001.13
2019-02-10T05:04:55.588Z,1001.13
2019-02-10T05:05:55.539Z,1001.08
2019-02-10T05:06:55.489Z,1001.08
2019-02-10T05:07:55.439Z,1001.07
2019-02-10T05:08:55.389Z,1001.06
2019-02-10T05:09:55.339Z,1001.04
2019-02-10T05:10:55.295Z,1001.04
2019-02-10T05:11:55.241Z,1001.02
2019-02-10T05:12:55.189Z,1001.01
2019-02-10T05:13:55.142Z,1000.99
2019-02-10T05:14:55.091Z,1000.93
2019-02-10T05:15:55.040Z,1000.97
2019-02-10T05:16:54.990Z,1000.95
2019-02-10T05:17:54.990Z,1000.94
2019-02-10T05:18:54.890Z,1000.95
2019-02-10T05:19:54.840Z,1000.91
2019-02-10T05:20:54.793Z,1000.91
2019-02-10T05:21:54.741Z,1000.90
2019-02-10T05:22:54.692Z,1000.91
2019-02-10T05:24:02.750Z,1000.85
2019-02-10T05:24:54.594Z,1000.89
2019-02-10T05:25:54.543Z,1000.82
2019-02-10T05:26:54.492Z,1000.83
2019-02-10T05:27:54.441Z,1000.77
2019-02-10T05:28:54.392Z,1000.76
2019-02-10T05:29:54.342Z,1000.74
2019-02-10T05:30:54.300Z,1000.72
2019-02-10T05:31:54.242Z,1000.68
2019-02-10T05:32:54.192Z,1000.66
2019-02-10T05:33:54.142Z,1000.75
2019-02-10T05:34:54.101Z,1000.66
2019-02-10T05:35:54.044Z,1000.68
2019-02-10T05:36:53.993Z,1000.64
2019-02-10T05:37:53.943Z,1000.62
2019-02-10T05:38:53.895Z,1000.59
2019-02-10T05:39:53.844Z,1000.61
2019-02-10T05:40:53.793Z,1000.57
2019-02-10T05:41:53.747Z,1000.53
2019-02-10T05:42:53.694Z,1000.55
2019-02-10T05:43:53.644Z,1000.47
2019-02-10T05:44:53.594Z,1000.48
2019-02-10T05:45:53.543Z,1000.51
2019-02-10T05:46:53.495Z,1000.41
2019-02-10T05:47:53.444Z,1000.43
2019-02-10T05:48:53.393Z,1000.45
2019-02-10T05:49:53.346Z,1000.37
2019-02-10T05:50:53.300Z,1000.34
2019-02-10T05:51:53.244Z,1000.33
2019-02-10T05:52:53.195Z,1000.29
2019-02-10T05:53:53.147Z,1000.34
2019-02-10T05:54:53.096Z,1000.26
2019-02-10T05:55:53.044Z,1000.24
2019-02-10T05:56:53.045Z,1000.23
2019-02-10T05:57:52.996Z,1000.18
2019-02-10T05:58:52.896Z,1000.15
2019-02-10T05:59:52.845Z,1000.10
2019-02-10T06:00:52.796Z,1000.07
2019-02-10T06:01:52.746Z,1000.02
2019-02-10T06:02:52.698Z,1000.03
2019-02-10T06:03:52.650Z,1000.00
2019-02-10T06:04:52.603Z,999.97
2019-02-10T06:05:52.551Z,999.97
2019-02-10T06:06:52.497Z,999.99
2019-02-10T06:07:52.446Z,999.96
2019-02-10T06:08:52.398Z,999.92
2019-02-10T06:09:52.347Z,999.92
2019-02-10T06:10:52.297Z,999.92
2019-02-10T06:11:52.247Z,999.93
2019-02-10T06:12:52.198Z,999.91
2019-02-10T06:13:52.148Z,999.90
2019-02-10T06:14:52.098Z,999.85
2019-02-10T06:15:52.047Z,999.81
2019-02-10T06:16:52.000Z,999.76
2019-02-10T06:17:51.949Z,999.75
2019-02-10T06:18:51.902Z,999.74
2019-02-10T06:19:51.848Z,999.72
2019-02-10T06:20:51.797Z,999.74
2019-02-10T06:21:51.748Z,999.74
2019-02-10T06:22:51.699Z,999.72
2019-02-10T06:23:51.649Z,999.74
2019-02-10T06:24:51.599Z,999.80
2019-02-10T06:25:51.607Z,999.79
2019-02-10T06:26:51.498Z,999.77
2019-02-10T06:27:51.452Z,999.70
2019-02-10T06:28:51.399Z,999.69
2019-02-10T06:29:51.350Z,999.65
2019-02-10T06:30:51.300Z,999.65
2019-02-10T06:31:51.257Z,999.66
2019-02-10T06:32:51.203Z,999.67
2019-02-10T06:33:51.150Z,999.67
2019-02-10T06:34:51.136Z,999.62
2019-02-10T06:35:51.050Z,999.65
2019-02-10T06:36:51.053Z,999.62
2019-02-10T06:37:50.999Z,999.56
2019-02-10T06:38:50.901Z,999.56
2019-02-10T06:39:50.851Z,999.50
2019-02-10T06:40:50.805Z,999.49
2019-02-10T06:41:50.751Z,999.49
2019-02-10T06:42:50.753Z,999.50
2019-02-10T06:43:50.651Z,999.46
2019-02-10T06:44:50.601Z,999.45
2019-02-10T06:45:50.551Z,999.46
2019-02-10T06:46:50.502Z,999.40
2019-02-10T06:47:50.450Z,999.38
2019-02-10T06:48:50.401Z,999.42
2019-02-10T06:49:50.352Z,999.49
2019-02-10T06:50:50.302Z,999.46
2019-02-10T06:51:50.252Z,999.51
2019-02-10T06:52:50.205Z,999.54
2019-02-10T06:53:50.152Z,999.48
2019-02-10T06:54:50.103Z,999.50
2019-02-10T06:55:50.052Z,999.44
2019-02-10T06:56:50.052Z,999.44
2019-02-10T06:57:49.956Z,999.49
2019-02-10T06:58:49.902Z,999.39
2019-02-10T06:59:49.853Z,999.41
2019-02-10T07:00:49.903Z,999.38
2019-02-10T07:01:50.070Z,999.34
2019-02-10T07:02:49.704Z,999.31
2019-02-10T07:03:49.653Z,999.29
2019-02-10T07:04:49.602Z,999.29
2019-02-10T07:05:49.554Z,999.28
2019-02-10T07:06:49.504Z,999.20
2019-02-10T07:07:49.454Z,999.26
2019-02-10T07:08:49.403Z,999.16
2019-02-10T07:09:49.356Z,999.19
2019-02-10T07:10:49.305Z,999.11
2019-02-10T07:11:49.254Z,999.08
2019-02-10T07:12:49.204Z,999.04
2019-02-10T07:13:49.155Z,999.03
2019-02-10T07:14:49.155Z,999.01
2019-02-10T07:15:49.056Z,999.05
2019-02-10T07:16:49.056Z,998.95
2019-02-10T07:17:49.006Z,998.95
2019-02-10T07:18:48.906Z,998.93
2019-02-10T07:19:48.856Z,998.92
2019-02-10T07:20:48.805Z,998.90
2019-02-10T07:21:48.756Z,998.91
2019-02-10T07:22:48.706Z,998.92
2019-02-10T07:23:48.656Z,998.87
2019-02-10T07:24:48.606Z,998.89
2019-02-10T07:25:48.556Z,998.87
2019-02-10T07:26:48.508Z,998.86
2019-02-10T07:27:48.456Z,998.85
2019-02-10T07:28:48.407Z,998.81
2019-02-10T07:29:48.357Z,998.82
2019-02-10T07:30:48.308Z,998.75
2019-02-10T07:31:48.258Z,998.74
2019-02-10T07:32:48.208Z,998.67
2019-02-10T07:33:48.158Z,998.67
2019-02-10T07:34:48.614Z,998.66
2019-02-10T07:35:48.058Z,998.63
2019-02-10T07:36:48.007Z,998.66
2019-02-10T07:37:48.059Z,998.61
2019-02-10T07:38:47.908Z,998.63
2019-02-10T07:39:47.857Z,998.60
2019-02-10T07:40:47.811Z,998.56
2019-02-10T07:41:47.761Z,998.58
2019-02-10T07:42:47.710Z,998.54
2019-02-10T07:43:47.659Z,998.52
2019-02-10T07:44:47.610Z,998.46
2019-02-10T07:45:47.560Z,998.49
2019-02-10T07:46:47.510Z,998.48
2019-02-10T07:47:47.460Z,998.44
2019-02-10T07:48:47.411Z,998.44
2019-02-10T07:49:47.362Z,998.40
2019-02-10T07:50:47.311Z,998.31
2019-02-10T07:51:47.261Z,998.22
2019-02-10T07:52:47.211Z,998.20
2019-02-10T07:53:47.161Z,998.18
2019-02-10T07:54:47.112Z,998.16
2019-02-10T07:55:47.061Z,998.14
2019-02-10T07:56:47.012Z,998.10
2019-02-10T07:57:47.012Z,998.10
2019-02-10T07:58:46.912Z,998.15
2019-02-10T07:59:46.864Z,998.12
2019-02-10T08:00:46.812Z,998.06
2019-02-10T08:01:46.762Z,998.02
2019-02-10T08:02:46.712Z,998.00
2019-02-10T08:03:46.663Z,997.98
2019-02-10T08:04:46.613Z,997.97
2019-02-10T08:05:46.563Z,997.93
2019-02-10T08:06:46.516Z,997.96
2019-02-10T08:07:46.462Z,997.94
2019-02-10T08:08:46.876Z,997.94
2019-02-10T08:09:46.364Z,997.92
2019-02-10T08:10:46.315Z,997.89
2019-02-10T08:11:46.264Z,997.92
2019-02-10T08:12:46.214Z,997.90
2019-02-10T08:13:46.165Z,997.92
2019-02-10T08:14:46.114Z,997.94
2019-02-10T08:15:46.065Z,997.96
2019-02-10T08:16:46.017Z,997.99
2019-02-10T08:17:46.015Z,997.91
2019-02-10T08:18:46.016Z,997.91
2019-02-10T08:19:45.875Z,997.90
2019-02-10T08:20:45.816Z,997.92
2019-02-10T08:21:45.765Z,997.87
2019-02-10T08:22:45.716Z,997.89
2019-02-10T08:23:45.666Z,997.81
2019-02-10T08:24:45.619Z,997.81
2019-02-10T08:25:45.567Z,997.79
2019-02-10T08:26:45.518Z,997.74
2019-02-10T08:27:45.470Z,997.73
2019-02-10T08:28:45.417Z,997.69
2019-02-10T08:29:45.367Z,997.70
2019-02-10T08:30:45.318Z,997.63
2019-02-10T08:31:45.268Z,997.63
2019-02-10T08:32:45.218Z,997.58
2019-02-10T08:33:45.168Z,997.59
2019-02-10T08:34:45.119Z,997.56
2019-02-10T08:35:45.118Z,997.54
2019-02-10T08:36:45.018Z,997.49
2019-02-10T08:37:45.019Z,997.46
2019-02-10T08:38:45.021Z,997.45
2019-02-10T08:39:44.869Z,997.41
2019-02-10T08:40:44.823Z,997.36
2019-02-10T08:41:44.770Z,997.28
2019-02-10T08:42:44.721Z,997.24
2019-02-10T08:43:44.670Z,997.26
2019-02-10T08:44:44.620Z,997.16
2019-02-10T08:45:44.571Z,997.10
2019-02-10T08:46:44.520Z,997.12
2019-02-10T08:47:44.471Z,997.08
2019-02-10T08:48:44.422Z,996.97
2019-02-10T08:49:44.371Z,996.94
2019-02-10T08:50:44.323Z,996.90
2019-02-10T08:51:44.272Z,996.85
2019-02-10T08:52:51.581Z,996.76
2019-02-10T08:53:44.172Z,996.80
2019-02-10T08:54:44.123Z,996.69
2019-02-10T08:55:44.122Z,996.67
2019-02-10T08:56:44.142Z,996.67
2019-02-10T08:57:44.023Z,996.62
2019-02-10T08:58:43.923Z,996.59
2019-02-10T08:59:43.872Z,996.46
2019-02-10T09:00:43.825Z,996.54
2019-02-10T09:01:43.773Z,996.46
2019-02-10T09:02:43.725Z,996.37
2019-02-10T09:03:43.675Z,996.33
2019-02-10T09:04:43.631Z,996.30
2019-02-10T09:05:43.581Z,996.24
2019-02-10T09:06:43.526Z,996.17
2019-02-10T09:07:43.475Z,996.17
2019-02-10T09:08:43.425Z,996.12
2019-02-10T09:09:43.377Z,996.13
2019-02-10T09:10:43.328Z,996.15
2019-02-10T09:11:43.276Z,996.10
2019-02-10T09:12:43.234Z,996.16
2019-02-10T09:13:43.178Z,995.98
2019-02-10T09:14:43.128Z,996.04
2019-02-10T09:15:43.077Z,995.95
2019-02-10T09:16:43.028Z,995.93
2019-02-10T09:17:42.978Z,995.90
2019-02-10T09:18:42.935Z,995.87
2019-02-10T09:19:42.878Z,995.79
2019-02-10T09:20:42.827Z,995.72
2019-02-10T09:21:42.778Z,995.71
2019-02-10T09:22:42.728Z,995.68
2019-02-10T09:23:42.678Z,995.51
2019-02-10T09:24:42.630Z,995.51
2019-02-10T09:25:42.579Z,995.53
2019-02-10T09:26:42.530Z,995.40
2019-02-10T09:27:42.478Z,995.38
2019-02-10T09:28:42.429Z,995.42
2019-02-10T09:29:42.380Z,995.37
2019-02-10T09:30:42.331Z,995.35
2019-02-10T09:31:42.279Z,995.31
2019-02-10T09:32:42.233Z,995.22
2019-02-10T09:33:42.180Z,995.18
2019-02-10T09:34:42.131Z,995.28
2019-02-10T09:35:42.080Z,995.19
2019-02-10T09:36:42.030Z,995.07
2019-02-10T09:37:41.981Z,995.09
2019-02-10T09:38:41.982Z,995.04
2019-02-10T09:39:41.883Z,995.01
2019-02-10T09:40:41.838Z,994.99
2019-02-10T09:41:41.782Z,994.97
2019-02-10T09:42:41.735Z,994.96
2019-02-10T09:43:41.682Z,994.89
2019-02-10T09:44:41.632Z,994.87
2019-02-10T09:45:41.584Z,994.83
2019-02-10T09:46:41.533Z,994.77
2019-02-10T09:47:41.481Z,994.70
2019-02-10T09:48:41.433Z,994.61
2019-02-10T09:49:41.384Z,994.71
2019-02-10T09:50:41.334Z,994.67
2019-02-10T09:51:41.283Z,994.61
2019-02-10T09:52:41.235Z,994.57
2019-02-10T09:53:41.186Z,994.47
2019-02-10T09:54:41.135Z,994.54
2019-02-10T09:55:41.088Z,994.50
2019-02-10T09:56:41.034Z,994.46
2019-02-10T09:57:40.986Z,994.48
2019-02-10T09:58:40.936Z,994.52
2019-02-10T09:59:40.885Z,994.40
2019-02-10T10:00:40.835Z,994.36
2019-02-10T10:01:40.786Z,994.27
2019-02-10T10:02:40.735Z,994.19
2019-02-10T10:03:40.687Z,994.19
2019-02-10T10:04:40.636Z,994.15
2019-02-10T10:05:40.586Z,994.22
2019-02-10T10:06:40.537Z,994.25
2019-02-10T10:07:40.486Z,994.11
2019-02-10T10:08:40.437Z,994.22
2019-02-10T10:09:40.386Z,994.06
2019-02-10T10:10:40.356Z,994.04
2019-02-10T10:11:40.287Z,994.11
2019-02-10T10:12:40.249Z,993.93
2019-02-10T10:13:40.188Z,993.92
2019-02-10T10:14:40.139Z,993.83
2019-02-10T10:15:40.088Z,993.83
2019-02-10T10:16:40.039Z,993.78
2019-02-10T10:17:39.989Z,993.73
2019-02-10T10:18:39.990Z,993.70
2019-02-10T10:19:39.891Z,993.72
2019-02-10T10:20:39.838Z,993.58
2019-02-10T10:21:39.790Z,993.62
2019-02-10T10:22:39.742Z,993.59
2019-02-10T10:23:39.690Z,993.50
2019-02-10T10:24:39.639Z,993.39
2019-02-10T10:25:39.591Z,993.40
2019-02-10T10:26:39.541Z,993.49
2019-02-10T10:27:39.490Z,993.34
2019-02-10T10:28:39.441Z,993.31
2019-02-10T10:29:39.391Z,993.29
2019-02-10T10:30:39.341Z,993.27
2019-02-10T10:31:39.291Z,993.36
2019-02-10T10:32:39.241Z,993.22
2019-02-10T10:33:39.192Z,993.25
2019-02-10T10:34:39.142Z,993.14
2019-02-10T10:35:39.094Z,993.08
2019-02-10T10:36:39.042Z,993.01
2019-02-10T10:37:38.993Z,992.85
2019-02-10T10:38:38.943Z,992.90
2019-02-10T10:39:38.891Z,992.83
2019-02-10T10:40:38.843Z,992.78
2019-02-10T10:41:38.793Z,992.76
2019-02-10T10:42:38.743Z,992.71
2019-02-10T10:43:38.705Z,992.70
2019-02-10T10:44:38.643Z,992.75
2019-02-10T10:45:38.594Z,992.66
2019-02-10T10:46:38.544Z,992.73
2019-02-10T10:47:38.495Z,992.49
2019-02-10T10:48:38.444Z,992.45
2019-02-10T10:49:38.394Z,992.28
2019-02-10T10:50:38.345Z,992.34
2019-02-10T10:51:39.369Z,992.30
2019-02-10T10:52:38.244Z,992.25
2019-02-10T10:53:38.194Z,992.26
2019-02-10T10:54:42.797Z,992.24
2019-02-10T10:55:38.095Z,992.24
2019-02-10T10:56:38.045Z,992.17
2019-02-10T10:57:37.995Z,992.17
2019-02-10T10:58:37.946Z,992.14
2019-02-10T10:59:37.945Z,992.18
2019-02-10T11:00:37.846Z,992.06
2019-02-10T11:01:37.797Z,992.06
2019-02-10T11:02:37.746Z,992.09
2019-02-10T11:03:37.696Z,991.94
2019-02-10T11:04:37.647Z,991.89
2019-02-10T11:05:37.597Z,991.93
2019-02-10T11:06:37.547Z,991.87
2019-02-10T11:07:37.496Z,991.81
2019-02-10T11:08:37.447Z,991.84
2019-02-10T11:09:37.397Z,991.83
2019-02-10T11:10:37.348Z,991.82
2019-02-10T11:11:37.297Z,991.83
2019-02-10T11:12:37.248Z,991.85
2019-02-10T11:13:37.198Z,991.81
2019-02-10T11:14:37.148Z,991.64
2019-02-10T11:15:37.097Z,991.60
2019-02-10T11:16:37.048Z,991.57
2019-02-10T11:17:37.000Z,991.66
2019-02-10T11:18:36.948Z,991.64
2019-02-10T11:19:36.898Z,991.56
2019-02-10T11:20:36.849Z,991.46
2019-02-10T11:21:36.798Z,991.43
2019-02-10T11:22:36.749Z,991.37
2019-02-10T11:23:36.698Z,991.40
2019-02-10T11:24:36.657Z,991.44
2019-02-10T11:25:36.600Z,991.42
2019-02-10T11:26:36.549Z,991.33
2019-02-10T11:27:36.498Z,991.32
2019-02-10T11:28:36.451Z,991.25
2019-02-10T11:29:36.399Z,991.11
2019-02-10T11:30:36.351Z,991.15
2019-02-10T11:31:36.299Z,991.13
2019-02-10T11:32:36.248Z,991.16
2019-02-10T11:33:36.199Z,991.20
2019-02-10T11:34:36.150Z,991.16
2019-02-10T11:35:36.101Z,991.06
2019-02-10T11:36:36.050Z,991.02
2019-02-10T11:37:36.001Z,990.98
2019-02-10T11:38:36.004Z,990.97
2019-02-10T11:39:43.406Z,991.00
2019-02-10T11:40:35.850Z,990.98
2019-02-10T11:41:35.800Z,990.92
2019-02-10T11:42:35.755Z,990.93
2019-02-10T11:43:35.701Z,990.84
2019-02-10T11:44:35.652Z,990.80
2019-02-10T11:45:35.601Z,990.66
2019-02-10T11:46:35.551Z,990.58
2019-02-10T11:47:35.501Z,990.54
2019-02-10T11:48:35.451Z,990.46
2019-02-10T11:49:35.402Z,990.60
2019-02-10T11:50:35.354Z,990.59
2019-02-10T11:51:35.301Z,990.63
2019-02-10T11:52:35.252Z,990.61
2019-02-10T11:53:35.202Z,990.46
2019-02-10T11:54:35.156Z,990.50
2019-02-10T11:55:35.103Z,990.41
2019-02-10T11:56:35.053Z,990.43
2019-02-10T11:57:35.002Z,990.47
2019-02-10T11:58:34.952Z,990.38
2019-02-10T11:59:34.902Z,990.33
2019-02-10T12:00:34.853Z,990.45
2019-02-10T12:01:34.803Z,990.36
2019-02-10T12:02:38.048Z,990.35
2019-02-10T12:03:34.703Z,990.33
2019-02-10T12:04:34.654Z,990.28
2019-02-10T12:05:34.604Z,990.24
2019-02-10T12:06:34.554Z,990.26
2019-02-10T12:07:34.504Z,990.18
2019-02-10T12:08:35.888Z,990.14
2019-02-10T12:09:34.408Z,990.22
2019-02-10T12:10:34.355Z,990.19
2019-02-10T12:11:34.305Z,990.20
2019-02-10T12:12:34.261Z,990.10
2019-02-10T12:13:34.208Z,990.15
2019-02-10T12:14:34.157Z,990.07
2019-02-10T12:15:34.106Z,990.10
2019-02-10T12:16:34.056Z,990.11